sensor_id;sensor_type;location;lat;lon;timestamp;P1;durP1;ratioP1;P2;durP2;ratioP2
46713;SDS011;32445;51.376;10.874;2023-03-05T00:00:44;10.60;;;2.90;;
46713;SDS011;32445;51.376;10.874;2023-03-05T00:03:44;3.78;;;2.50;;
46713;SDS011;32445;51.376;10.874;2023-03-05T00:06:45;4.75;;;2.65;;
46713;SDS011;32445;51.376;10.874;2023-03-05T00:09:46;7.47;;;2.60;;
46713;SDS011;32445;51.376;10.874;2023-03-05T00:12:46;3.38;;;2.22;;
46713;SDS011;32445;51.376;10.874;2023-03-05T00:15:46;4.95;;;2.58;;
46713;SDS011;32445;51.376;10.874;2023-03-05T00:18:47;5.63;;;2.42;;
46713;SDS011;32445;51.376;10.874;2023-03-05T00:21:48;7.73;;;2.67;;
46713;SDS011;32445;51.376;10.874;2023-03-05T00:24:49;2.33;;;2.13;;
46713;SDS011;32445;51.376;10.874;2023-03-05T00:27:50;7.37;;;2.53;;
46713;SDS011;32445;51.376;10.874;2023-03-05T00:30:50;6.05;;;3.20;;
46713;SDS011;32445;51.376;10.874;2023-03-05T00:33:54;5.47;;;2.83;;
46713;SDS011;32445;51.376;10.874;2023-03-05T00:36:56;3.97;;;2.25;;
46713;SDS011;32445;51.376;10.874;2023-03-05T00:39:56;3.40;;;1.98;;
46713;SDS011;32445;51.376;10.874;2023-03-05T00:42:56;3.10;;;2.30;;
46713;SDS011;32445;51.376;10.874;2023-03-05T00:45:57;7.15;;;2.20;;
46713;SDS011;32445;51.376;10.874;2023-03-05T00:48:57;3.95;;;2.72;;
46713;SDS011;32445;51.376;10.874;2023-03-05T00:51:57;3.83;;;1.98;;
46713;SDS011;32445;51.376;10.874;2023-03-05T00:54:58;5.57;;;3.28;;
46713;SDS011;32445;51.376;10.874;2023-03-05T00:57:58;4.63;;;2.45;;
46713;SDS011;32445;51.376;10.874;2023-03-05T01:00:59;4.35;;;2.08;;
46713;SDS011;32445;51.376;10.874;2023-03-05T01:04:00;5.53;;;1.95;;
46713;SDS011;32445;51.376;10.874;2023-03-05T01:07:00;4.63;;;2.10;;
46713;SDS011;32445;51.376;10.874;2023-03-05T01:10:01;6.95;;;2.60;;
46713;SDS011;32445;51.376;10.874;2023-03-05T01:13:02;5.23;;;2.27;;
46713;SDS011;32445;51.376;10.874;2023-03-05T01:16:03;6.05;;;2.63;;
46713;SDS011;32445;51.376;10.874;2023-03-05T01:19:04;6.82;;;2.38;;
46713;SDS011;32445;51.376;10.874;2023-03-05T01:22:04;3.80;;;2.05;;
46713;SDS011;32445;51.376;10.874;2023-03-05T01:25:05;6.03;;;2.17;;
46713;SDS011;32445;51.376;10.874;2023-03-05T01:31:31;3.60;;;1.98;;
46713;SDS011;32445;51.376;10.874;2023-03-05T01:34:32;6.82;;;2.20;;
46713;SDS011;32445;51.376;10.874;2023-03-05T01:37:32;11.75;;;3.17;;
46713;SDS011;32445;51.376;10.874;2023-03-05T01:40:32;5.38;;;2.42;;
46713;SDS011;32445;51.376;10.874;2023-03-05T01:43:33;6.90;;;2.78;;
46713;SDS011;32445;51.376;10.874;2023-03-05T01:46:34;7.43;;;3.60;;
46713;SDS011;32445;51.376;10.874;2023-03-05T01:49:37;5.18;;;2.83;;
46713;SDS011;32445;51.376;10.874;2023-03-05T01:52:40;4.50;;;2.85;;
46713;SDS011;32445;51.376;10.874;2023-03-05T01:55:44;8.98;;;3.08;;
46713;SDS011;32445;51.376;10.874;2023-03-05T01:58:45;5.75;;;2.83;;
46713;SDS011;32445;51.376;10.874;2023-03-05T02:01:47;5.28;;;3.10;;
46713;SDS011;32445;51.376;10.874;2023-03-05T02:04:56;4.97;;;3.17;;
46713;SDS011;32445;51.376;10.874;2023-03-05T02:08:03;9.13;;;2.92;;
46713;SDS011;32445;51.376;10.874;2023-03-05T02:11:05;7.43;;;2.90;;
46713;SDS011;32445;51.376;10.874;2023-03-05T02:14:06;11.30;;;3.60;;
46713;SDS011;32445;51.376;10.874;2023-03-05T02:17:09;4.10;;;3.30;;
46713;SDS011;32445;51.376;10.874;2023-03-05T02:20:14;6.18;;;2.78;;
46713;SDS011;32445;51.376;10.874;2023-03-05T02:23:18;8.00;;;3.00;;
46713;SDS011;32445;51.376;10.874;2023-03-05T02:26:20;10.45;;;2.60;;
46713;SDS011;32445;51.376;10.874;2023-03-05T02:29:20;5.47;;;2.90;;
46713;SDS011;32445;51.376;10.874;2023-03-05T02:32:20;2.22;;;2.03;;
46713;SDS011;32445;51.376;10.874;2023-03-05T02:35:21;7.25;;;2.67;;
46713;SDS011;32445;51.376;10.874;2023-03-05T02:38:21;6.55;;;3.03;;
46713;SDS011;32445;51.376;10.874;2023-03-05T02:41:22;4.13;;;2.83;;
46713;SDS011;32445;51.376;10.874;2023-03-05T02:44:23;11.10;;;2.90;;
46713;SDS011;32445;51.376;10.874;2023-03-05T02:47:23;6.55;;;2.30;;
46713;SDS011;32445;51.376;10.874;2023-03-05T02:50:25;5.82;;;2.50;;
46713;SDS011;32445;51.376;10.874;2023-03-05T02:53:26;7.03;;;2.85;;
46713;SDS011;32445;51.376;10.874;2023-03-05T02:56:27;5.20;;;2.65;;
46713;SDS011;32445;51.376;10.874;2023-03-05T02:59:27;7.70;;;2.60;;
46713;SDS011;32445;51.376;10.874;2023-03-05T03:02:27;4.03;;;2.47;;
46713;SDS011;32445;51.376;10.874;2023-03-05T03:05:28;5.57;;;3.15;;
46713;SDS011;32445;51.376;10.874;2023-03-05T03:08:28;5.78;;;3.10;;
46713;SDS011;32445;51.376;10.874;2023-03-05T03:11:28;5.35;;;2.92;;
46713;SDS011;32445;51.376;10.874;2023-03-05T03:14:30;4.57;;;2.60;;
46713;SDS011;32445;51.376;10.874;2023-03-05T03:17:40;9.32;;;3.67;;
46713;SDS011;32445;51.376;10.874;2023-03-05T03:20:41;4.82;;;2.58;;
46713;SDS011;32445;51.376;10.874;2023-03-05T03:23:41;8.88;;;3.30;;
46713;SDS011;32445;51.376;10.874;2023-03-05T03:26:42;5.22;;;2.45;;
46713;SDS011;32445;51.376;10.874;2023-03-05T03:29:42;11.10;;;2.80;;
46713;SDS011;32445;51.376;10.874;2023-03-05T03:32:42;7.82;;;2.63;;
46713;SDS011;32445;51.376;10.874;2023-03-05T03:35:44;5.10;;;2.63;;
46713;SDS011;32445;51.376;10.874;2023-03-05T03:38:45;8.45;;;3.10;;
46713;SDS011;32445;51.376;10.874;2023-03-05T03:41:46;8.00;;;2.78;;
46713;SDS011;32445;51.376;10.874;2023-03-05T03:44:49;4.70;;;2.55;;
46713;SDS011;32445;51.376;10.874;2023-03-05T03:47:50;6.28;;;2.47;;
46713;SDS011;32445;51.376;10.874;2023-03-05T03:50:51;3.28;;;2.45;;
46713;SDS011;32445;51.376;10.874;2023-03-05T03:53:51;7.10;;;3.80;;
46713;SDS011;32445;51.376;10.874;2023-03-05T03:56:51;7.80;;;3.22;;
46713;SDS011;32445;51.376;10.874;2023-03-05T03:59:52;6.47;;;3.08;;
46713;SDS011;32445;51.376;10.874;2023-03-05T04:02:52;4.05;;;2.20;;
46713;SDS011;32445;51.376;10.874;2023-03-05T04:05:52;4.03;;;2.60;;
46713;SDS011;32445;51.376;10.874;2023-03-05T04:08:53;4.00;;;2.42;;
46713;SDS011;32445;51.376;10.874;2023-03-05T04:11:53;6.00;;;2.33;;
46713;SDS011;32445;51.376;10.874;2023-03-05T04:14:54;2.70;;;2.30;;
46713;SDS011;32445;51.376;10.874;2023-03-05T04:17:54;7.00;;;2.38;;
46713;SDS011;32445;51.376;10.874;2023-03-05T04:20:54;6.75;;;2.75;;
46713;SDS011;32445;51.376;10.874;2023-03-05T04:23:55;4.78;;;2.40;;
46713;SDS011;32445;51.376;10.874;2023-03-05T04:26:55;7.68;;;3.15;;
46713;SDS011;32445;51.376;10.874;2023-03-05T04:29:55;6.30;;;2.35;;
46713;SDS011;32445;51.376;10.874;2023-03-05T04:32:56;5.75;;;2.58;;
46713;SDS011;32445;51.376;10.874;2023-03-05T04:35:56;4.78;;;3.42;;
46713;SDS011;32445;51.376;10.874;2023-03-05T04:38:57;4.32;;;3.22;;
46713;SDS011;32445;51.376;10.874;2023-03-05T04:41:58;9.98;;;2.90;;
46713;SDS011;32445;51.376;10.874;2023-03-05T04:44:58;5.93;;;3.28;;
46713;SDS011;32445;51.376;10.874;2023-03-05T04:47:59;5.53;;;2.05;;
46713;SDS011;32445;51.376;10.874;2023-03-05T04:50:59;5.05;;;2.35;;
46713;SDS011;32445;51.376;10.874;2023-03-05T04:54:00;7.82;;;2.55;;
46713;SDS011;32445;51.376;10.874;2023-03-05T04:57:00;5.95;;;2.58;;
46713;SDS011;32445;51.376;10.874;2023-03-05T05:00:01;2.45;;;2.20;;
46713;SDS011;32445;51.376;10.874;2023-03-05T05:03:05;6.57;;;2.42;;
46713;SDS011;32445;51.376;10.874;2023-03-05T05:06:06;4.90;;;2.50;;
46713;SDS011;32445;51.376;10.874;2023-03-05T05:09:06;3.78;;;2.65;;
46713;SDS011;32445;51.376;10.874;2023-03-05T05:12:06;2.67;;;2.42;;
46713;SDS011;32445;51.376;10.874;2023-03-05T05:15:07;4.88;;;3.30;;
46713;SDS011;32445;51.376;10.874;2023-03-05T05:18:08;5.03;;;2.53;;
46713;SDS011;32445;51.376;10.874;2023-03-05T05:21:10;4.00;;;2.58;;
46713;SDS011;32445;51.376;10.874;2023-03-05T05:24:12;4.50;;;3.17;;
46713;SDS011;32445;51.376;10.874;2023-03-05T05:27:12;4.82;;;2.72;;
46713;SDS011;32445;51.376;10.874;2023-03-05T05:30:12;9.07;;;3.20;;
46713;SDS011;32445;51.376;10.874;2023-03-05T05:33:13;5.05;;;3.45;;
46713;SDS011;32445;51.376;10.874;2023-03-05T05:36:14;4.35;;;3.33;;
46713;SDS011;32445;51.376;10.874;2023-03-05T05:39:17;5.35;;;3.22;;
46713;SDS011;32445;51.376;10.874;2023-03-05T05:42:18;3.20;;;2.90;;
46713;SDS011;32445;51.376;10.874;2023-03-05T05:45:20;4.65;;;3.53;;
46713;SDS011;32445;51.376;10.874;2023-03-05T05:48:21;5.95;;;3.10;;
46713;SDS011;32445;51.376;10.874;2023-03-05T05:51:22;4.68;;;3.47;;
46713;SDS011;32445;51.376;10.874;2023-03-05T05:54:22;11.02;;;3.28;;
46713;SDS011;32445;51.376;10.874;2023-03-05T05:57:23;6.28;;;3.45;;
46713;SDS011;32445;51.376;10.874;2023-03-05T06:00:24;6.70;;;3.65;;
46713;SDS011;32445;51.376;10.874;2023-03-05T06:03:24;6.28;;;4.20;;
46713;SDS011;32445;51.376;10.874;2023-03-05T06:06:25;4.43;;;3.45;;
46713;SDS011;32445;51.376;10.874;2023-03-05T06:09:26;7.07;;;3.85;;
46713;SDS011;32445;51.376;10.874;2023-03-05T06:12:26;7.20;;;4.05;;
46713;SDS011;32445;51.376;10.874;2023-03-05T06:15:28;4.60;;;4.00;;
46713;SDS011;32445;51.376;10.874;2023-03-05T06:18:28;8.48;;;3.63;;
46713;SDS011;32445;51.376;10.874;2023-03-05T06:21:29;8.27;;;4.20;;
46713;SDS011;32445;51.376;10.874;2023-03-05T06:24:30;6.30;;;3.83;;
46713;SDS011;32445;51.376;10.874;2023-03-05T06:27:31;6.80;;;3.92;;
46713;SDS011;32445;51.376;10.874;2023-03-05T06:30:33;6.07;;;3.95;;
46713;SDS011;32445;51.376;10.874;2023-03-05T06:33:33;5.13;;;3.42;;
46713;SDS011;32445;51.376;10.874;2023-03-05T06:36:35;4.50;;;3.70;;
46713;SDS011;32445;51.376;10.874;2023-03-05T06:39:35;3.95;;;3.53;;
46713;SDS011;32445;51.376;10.874;2023-03-05T06:42:35;5.20;;;3.72;;
46713;SDS011;32445;51.376;10.874;2023-03-05T06:45:36;9.95;;;4.95;;
46713;SDS011;32445;51.376;10.874;2023-03-05T06:48:36;10.82;;;4.60;;
46713;SDS011;32445;51.376;10.874;2023-03-05T06:51:37;8.52;;;3.95;;
46713;SDS011;32445;51.376;10.874;2023-03-05T06:54:38;4.70;;;4.00;;
46713;SDS011;32445;51.376;10.874;2023-03-05T06:57:39;8.52;;;3.78;;
46713;SDS011;32445;51.376;10.874;2023-03-05T07:00:39;10.93;;;4.50;;
46713;SDS011;32445;51.376;10.874;2023-03-05T07:03:40;8.75;;;4.35;;
46713;SDS011;32445;51.376;10.874;2023-03-05T07:06:41;5.95;;;4.47;;
46713;SDS011;32445;51.376;10.874;2023-03-05T07:09:42;5.78;;;4.65;;
46713;SDS011;32445;51.376;10.874;2023-03-05T07:12:44;9.48;;;7.57;;
46713;SDS011;32445;51.376;10.874;2023-03-05T07:15:45;8.82;;;7.78;;
46713;SDS011;32445;51.376;10.874;2023-03-05T07:18:45;6.95;;;6.13;;
46713;SDS011;32445;51.376;10.874;2023-03-05T07:21:46;7.10;;;4.55;;
46713;SDS011;32445;51.376;10.874;2023-03-05T07:24:46;4.93;;;4.13;;
46713;SDS011;32445;51.376;10.874;2023-03-05T07:27:47;5.95;;;5.40;;
46713;SDS011;32445;51.376;10.874;2023-03-05T07:30:57;4.90;;;3.58;;
46713;SDS011;32445;51.376;10.874;2023-03-05T07:33:59;5.40;;;3.72;;
46713;SDS011;32445;51.376;10.874;2023-03-05T07:37:01;7.38;;;3.95;;
46713;SDS011;32445;51.376;10.874;2023-03-05T07:40:02;6.75;;;3.35;;
46713;SDS011;32445;51.376;10.874;2023-03-05T07:43:03;5.05;;;3.92;;
46713;SDS011;32445;51.376;10.874;2023-03-05T07:46:04;6.95;;;4.03;;
46713;SDS011;32445;51.376;10.874;2023-03-05T07:49:10;4.32;;;3.72;;
46713;SDS011;32445;51.376;10.874;2023-03-05T07:52:10;12.43;;;4.80;;
46713;SDS011;32445;51.376;10.874;2023-03-05T07:55:10;8.05;;;3.95;;
46713;SDS011;32445;51.376;10.874;2023-03-05T07:58:11;4.32;;;3.92;;
46713;SDS011;32445;51.376;10.874;2023-03-05T08:01:13;5.50;;;4.22;;
46713;SDS011;32445;51.376;10.874;2023-03-05T08:04:13;5.80;;;3.80;;
46713;SDS011;32445;51.376;10.874;2023-03-05T08:07:14;5.85;;;3.50;;
46713;SDS011;32445;51.376;10.874;2023-03-05T08:10:15;6.15;;;4.38;;
46713;SDS011;32445;51.376;10.874;2023-03-05T08:13:16;6.38;;;4.40;;
46713;SDS011;32445;51.376;10.874;2023-03-05T08:16:17;5.55;;;4.25;;
46713;SDS011;32445;51.376;10.874;2023-03-05T08:19:19;4.88;;;3.88;;
46713;SDS011;32445;51.376;10.874;2023-03-05T08:22:20;3.80;;;3.60;;
46713;SDS011;32445;51.376;10.874;2023-03-05T08:25:20;4.97;;;4.50;;
46713;SDS011;32445;51.376;10.874;2023-03-05T08:28:21;7.88;;;5.85;;
46713;SDS011;32445;51.376;10.874;2023-03-05T08:31:22;5.45;;;4.18;;
46713;SDS011;32445;51.376;10.874;2023-03-05T08:34:24;4.43;;;3.60;;
46713;SDS011;32445;51.376;10.874;2023-03-05T08:37:24;5.50;;;4.18;;
46713;SDS011;32445;51.376;10.874;2023-03-05T08:40:24;3.63;;;3.20;;
46713;SDS011;32445;51.376;10.874;2023-03-05T08:43:25;6.55;;;3.65;;
46713;SDS011;32445;51.376;10.874;2023-03-05T08:46:25;3.22;;;2.80;;
46713;SDS011;32445;51.376;10.874;2023-03-05T08:49:26;3.38;;;3.08;;
46713;SDS011;32445;51.376;10.874;2023-03-05T08:52:26;6.50;;;3.00;;
46713;SDS011;32445;51.376;10.874;2023-03-05T08:55:27;5.13;;;3.90;;
46713;SDS011;32445;51.376;10.874;2023-03-05T08:58:27;3.90;;;3.28;;
46713;SDS011;32445;51.376;10.874;2023-03-05T09:01:28;4.32;;;3.70;;
46713;SDS011;32445;51.376;10.874;2023-03-05T09:04:30;3.38;;;2.95;;
46713;SDS011;32445;51.376;10.874;2023-03-05T09:07:30;4.43;;;3.80;;
46713;SDS011;32445;51.376;10.874;2023-03-05T09:10:30;3.25;;;2.75;;
46713;SDS011;32445;51.376;10.874;2023-03-05T09:13:31;4.88;;;3.63;;
46713;SDS011;32445;51.376;10.874;2023-03-05T09:16:32;5.88;;;2.78;;
46713;SDS011;32445;51.376;10.874;2023-03-05T09:19:33;4.30;;;2.72;;
46713;SDS011;32445;51.376;10.874;2023-03-05T09:22:33;5.72;;;2.70;;
46713;SDS011;32445;51.376;10.874;2023-03-05T09:25:34;11.63;;;6.88;;
46713;SDS011;32445;51.376;10.874;2023-03-05T09:28:34;8.63;;;3.80;;
46713;SDS011;32445;51.376;10.874;2023-03-05T09:31:35;4.85;;;2.78;;
46713;SDS011;32445;51.376;10.874;2023-03-05T09:34:35;4.90;;;3.42;;
46713;SDS011;32445;51.376;10.874;2023-03-05T09:37:36;2.63;;;2.15;;
46713;SDS011;32445;51.376;10.874;2023-03-05T09:40:41;2.88;;;2.40;;
46713;SDS011;32445;51.376;10.874;2023-03-05T09:47:19;3.05;;;2.50;;
46713;SDS011;32445;51.376;10.874;2023-03-05T09:57:04;3.72;;;2.60;;
46713;SDS011;32445;51.376;10.874;2023-03-05T10:00:33;6.25;;;3.00;;
46713;SDS011;32445;51.376;10.874;2023-03-05T10:03:48;6.72;;;2.97;;
46713;SDS011;32445;51.376;10.874;2023-03-05T10:07:03;4.25;;;2.80;;
46713;SDS011;32445;51.376;10.874;2023-03-05T10:10:09;3.80;;;2.92;;
46713;SDS011;32445;51.376;10.874;2023-03-05T10:13:15;3.40;;;3.10;;
46713;SDS011;32445;51.376;10.874;2023-03-05T10:26:13;4.18;;;3.10;;
46713;SDS011;32445;51.376;10.874;2023-03-05T10:32:54;11.68;;;8.82;;
46713;SDS011;32445;51.376;10.874;2023-03-05T10:39:41;3.70;;;3.40;;
46713;SDS011;32445;51.376;10.874;2023-03-05T10:46:19;3.33;;;2.83;;
46713;SDS011;32445;51.376;10.874;2023-03-05T10:49:22;2.72;;;2.53;;
46713;SDS011;32445;51.376;10.874;2023-03-05T10:52:29;3.80;;;3.50;;
46713;SDS011;32445;51.376;10.874;2023-03-05T10:55:37;3.03;;;2.83;;
46713;SDS011;32445;51.376;10.874;2023-03-05T10:58:37;4.43;;;3.78;;
46713;SDS011;32445;51.376;10.874;2023-03-05T11:01:37;3.85;;;3.55;;
46713;SDS011;32445;51.376;10.874;2023-03-05T11:04:38;7.88;;;3.80;;
46713;SDS011;32445;51.376;10.874;2023-03-05T11:07:39;5.47;;;3.80;;
46713;SDS011;32445;51.376;10.874;2023-03-05T11:10:39;11.07;;;7.72;;
46713;SDS011;32445;51.376;10.874;2023-03-05T11:16:50;2.63;;;2.22;;
46713;SDS011;32445;51.376;10.874;2023-03-05T11:19:50;3.60;;;2.30;;
46713;SDS011;32445;51.376;10.874;2023-03-05T11:26:22;1.80;;;1.70;;
46713;SDS011;32445;51.376;10.874;2023-03-05T11:29:24;2.28;;;1.38;;
46713;SDS011;32445;51.376;10.874;2023-03-05T11:32:29;1.52;;;1.42;;
46713;SDS011;32445;51.376;10.874;2023-03-05T11:35:31;1.67;;;1.58;;
46713;SDS011;32445;51.376;10.874;2023-03-05T11:38:36;2.45;;;1.48;;
46713;SDS011;32445;51.376;10.874;2023-03-05T11:44:55;2.08;;;1.73;;
46713;SDS011;32445;51.376;10.874;2023-03-05T11:48:00;1.67;;;1.58;;
46713;SDS011;32445;51.376;10.874;2023-03-05T11:51:14;2.30;;;2.10;;
46713;SDS011;32445;51.376;10.874;2023-03-05T11:54:20;4.57;;;1.75;;
46713;SDS011;32445;51.376;10.874;2023-03-05T11:57:26;2.50;;;1.98;;
46713;SDS011;32445;51.376;10.874;2023-03-05T12:00:45;2.30;;;1.65;;
46713;SDS011;32445;51.376;10.874;2023-03-05T12:03:46;1.55;;;1.50;;
46713;SDS011;32445;51.376;10.874;2023-03-05T12:09:49;1.75;;;1.65;;
46713;SDS011;32445;51.376;10.874;2023-03-05T12:16:17;1.60;;;1.50;;
46713;SDS011;32445;51.376;10.874;2023-03-05T12:19:45;1.70;;;1.60;;
46713;SDS011;32445;51.376;10.874;2023-03-05T12:22:47;1.98;;;1.60;;
46713;SDS011;32445;51.376;10.874;2023-03-05T12:28:56;1.60;;;1.50;;
46713;SDS011;32445;51.376;10.874;2023-03-05T12:31:57;2.08;;;1.50;;
46713;SDS011;32445;51.376;10.874;2023-03-05T12:35:04;2.95;;;1.85;;
46713;SDS011;32445;51.376;10.874;2023-03-05T12:38:29;2.40;;;2.20;;
46713;SDS011;32445;51.376;10.874;2023-03-05T12:41:31;2.17;;;1.95;;
46713;SDS011;32445;51.376;10.874;2023-03-05T12:44:33;3.03;;;1.83;;
46713;SDS011;32445;51.376;10.874;2023-03-05T12:47:34;2.47;;;1.77;;
46713;SDS011;32445;51.376;10.874;2023-03-05T12:53:39;1.50;;;1.40;;
46713;SDS011;32445;51.376;10.874;2023-03-05T12:56:39;1.75;;;1.65;;
46713;SDS011;32445;51.376;10.874;2023-03-05T12:59:47;2.20;;;1.60;;
46713;SDS011;32445;51.376;10.874;2023-03-05T13:03:10;2.50;;;1.40;;
46713;SDS011;32445;51.376;10.874;2023-03-05T13:06:25;4.78;;;1.45;;
46713;SDS011;32445;51.376;10.874;2023-03-05T13:09:27;1.90;;;1.80;;
46713;SDS011;32445;51.376;10.874;2023-03-05T13:12:30;3.45;;;1.35;;
46713;SDS011;32445;51.376;10.874;2023-03-05T13:15:31;3.65;;;1.33;;
46713;SDS011;32445;51.376;10.874;2023-03-05T13:18:31;3.28;;;1.65;;
46713;SDS011;32445;51.376;10.874;2023-03-05T13:21:33;1.45;;;1.30;;
46713;SDS011;32445;51.376;10.874;2023-03-05T13:24:34;2.63;;;2.00;;
46713;SDS011;32445;51.376;10.874;2023-03-05T13:27:34;2.50;;;1.80;;
46713;SDS011;32445;51.376;10.874;2023-03-05T13:30:35;4.20;;;1.70;;
46713;SDS011;32445;51.376;10.874;2023-03-05T13:33:35;3.88;;;1.70;;
46713;SDS011;32445;51.376;10.874;2023-03-05T13:36:36;3.05;;;1.98;;
46713;SDS011;32445;51.376;10.874;2023-03-05T13:39:48;1.58;;;1.48;;
46713;SDS011;32445;51.376;10.874;2023-03-05T13:42:51;3.88;;;2.10;;
46713;SDS011;32445;51.376;10.874;2023-03-05T13:45:53;2.47;;;1.50;;
46713;SDS011;32445;51.376;10.874;2023-03-05T13:48:55;2.05;;;1.60;;
46713;SDS011;32445;51.376;10.874;2023-03-05T13:51:57;2.13;;;1.85;;
46713;SDS011;32445;51.376;10.874;2023-03-05T13:57:59;3.33;;;2.00;;
46713;SDS011;32445;51.376;10.874;2023-03-05T14:01:43;2.47;;;1.83;;
46713;SDS011;32445;51.376;10.874;2023-03-05T14:04:35;5.22;;;2.47;;
46713;SDS011;32445;51.376;10.874;2023-03-05T14:07:37;5.63;;;3.33;;
46713;SDS011;32445;51.376;10.874;2023-03-05T14:10:39;2.92;;;2.65;;
46713;SDS011;32445;51.376;10.874;2023-03-05T14:13:41;3.78;;;2.42;;
46713;SDS011;32445;51.376;10.874;2023-03-05T14:16:42;2.80;;;1.80;;
46713;SDS011;32445;51.376;10.874;2023-03-05T14:19:42;2.00;;;1.85;;
46713;SDS011;32445;51.376;10.874;2023-03-05T14:22:44;2.97;;;1.70;;
46713;SDS011;32445;51.376;10.874;2023-03-05T14:25:47;2.70;;;1.80;;
46713;SDS011;32445;51.376;10.874;2023-03-05T14:32:07;2.67;;;2.13;;
46713;SDS011;32445;51.376;10.874;2023-03-05T14:35:23;6.45;;;2.72;;
46713;SDS011;32445;51.376;10.874;2023-03-05T14:38:26;2.58;;;1.90;;
46713;SDS011;32445;51.376;10.874;2023-03-05T14:44:38;2.72;;;2.10;;
46713;SDS011;32445;51.376;10.874;2023-03-05T14:47:39;6.22;;;2.75;;
46713;SDS011;32445;51.376;10.874;2023-03-05T14:50:41;2.60;;;2.40;;
46713;SDS011;32445;51.376;10.874;2023-03-05T14:53:45;2.25;;;1.90;;
46713;SDS011;32445;51.376;10.874;2023-03-05T14:56:47;3.25;;;1.50;;
46713;SDS011;32445;51.376;10.874;2023-03-05T14:59:48;1.92;;;1.73;;
46713;SDS011;32445;51.376;10.874;2023-03-05T15:02:49;4.72;;;2.25;;
46713;SDS011;32445;51.376;10.874;2023-03-05T15:05:50;3.25;;;2.53;;
46713;SDS011;32445;51.376;10.874;2023-03-05T15:08:53;2.17;;;1.48;;
46713;SDS011;32445;51.376;10.874;2023-03-05T15:11:53;2.95;;;1.75;;
46713;SDS011;32445;51.376;10.874;2023-03-05T15:14:54;1.67;;;1.58;;
46713;SDS011;32445;51.376;10.874;2023-03-05T15:17:55;2.47;;;1.50;;
46713;SDS011;32445;51.376;10.874;2023-03-05T15:20:56;2.30;;;1.50;;
46713;SDS011;32445;51.376;10.874;2023-03-05T15:23:56;1.70;;;1.60;;
46713;SDS011;32445;51.376;10.874;2023-03-05T15:26:57;6.22;;;1.80;;
46713;SDS011;32445;51.376;10.874;2023-03-05T15:29:57;3.60;;;1.33;;
46713;SDS011;32445;51.376;10.874;2023-03-05T15:33:03;1.90;;;1.53;;
46713;SDS011;32445;51.376;10.874;2023-03-05T15:36:05;1.60;;;1.50;;
46713;SDS011;32445;51.376;10.874;2023-03-05T15:39:06;3.67;;;1.50;;
46713;SDS011;32445;51.376;10.874;2023-03-05T15:42:06;1.50;;;1.40;;
46713;SDS011;32445;51.376;10.874;2023-03-05T15:45:07;1.60;;;1.40;;
46713;SDS011;32445;51.376;10.874;2023-03-05T15:48:08;2.33;;;1.88;;
46713;SDS011;32445;51.376;10.874;2023-03-05T15:51:09;2.08;;;1.88;;
46713;SDS011;32445;51.376;10.874;2023-03-05T15:54:09;2.55;;;1.55;;
46713;SDS011;32445;51.376;10.874;2023-03-05T15:57:10;2.08;;;1.63;;
46713;SDS011;32445;51.376;10.874;2023-03-05T16:00:12;2.72;;;1.48;;
46713;SDS011;32445;51.376;10.874;2023-03-05T16:03:14;3.08;;;1.60;;
46713;SDS011;32445;51.376;10.874;2023-03-05T16:06:14;2.08;;;1.73;;
46713;SDS011;32445;51.376;10.874;2023-03-05T16:09:19;1.50;;;1.40;;
46713;SDS011;32445;51.376;10.874;2023-03-05T16:12:21;2.20;;;1.60;;
46713;SDS011;32445;51.376;10.874;2023-03-05T16:15:25;1.80;;;1.40;;
46713;SDS011;32445;51.376;10.874;2023-03-05T16:18:26;3.50;;;2.28;;
46713;SDS011;32445;51.376;10.874;2023-03-05T16:21:29;3.22;;;1.80;;
46713;SDS011;32445;51.376;10.874;2023-03-05T16:24:29;5.47;;;2.17;;
46713;SDS011;32445;51.376;10.874;2023-03-05T16:30:32;3.88;;;2.13;;
46713;SDS011;32445;51.376;10.874;2023-03-05T16:33:33;2.47;;;2.28;;
46713;SDS011;32445;51.376;10.874;2023-03-05T16:36:33;3.58;;;1.90;;
46713;SDS011;32445;51.376;10.874;2023-03-05T16:39:35;7.38;;;4.70;;
46713;SDS011;32445;51.376;10.874;2023-03-05T16:42:35;2.30;;;2.10;;
46713;SDS011;32445;51.376;10.874;2023-03-05T16:45:36;2.58;;;1.58;;
46713;SDS011;32445;51.376;10.874;2023-03-05T16:48:36;2.33;;;2.03;;
46713;SDS011;32445;51.376;10.874;2023-03-05T16:51:37;3.38;;;3.08;;
46713;SDS011;32445;51.376;10.874;2023-03-05T16:54:37;2.58;;;2.38;;
46713;SDS011;32445;51.376;10.874;2023-03-05T16:57:40;2.35;;;2.15;;
46713;SDS011;32445;51.376;10.874;2023-03-05T17:00:40;2.33;;;2.17;;
46713;SDS011;32445;51.376;10.874;2023-03-05T17:03:41;2.08;;;1.95;;
46713;SDS011;32445;51.376;10.874;2023-03-05T17:06:44;2.30;;;2.13;;
46713;SDS011;32445;51.376;10.874;2023-03-05T17:09:45;1.92;;;1.77;;
46713;SDS011;32445;51.376;10.874;2023-03-05T17:12:47;3.23;;;2.70;;
46713;SDS011;32445;51.376;10.874;2023-03-05T17:15:47;3.55;;;3.25;;
46713;SDS011;32445;51.376;10.874;2023-03-05T17:18:48;4.07;;;3.45;;
46713;SDS011;32445;51.376;10.874;2023-03-05T17:21:48;3.55;;;3.25;;
46713;SDS011;32445;51.376;10.874;2023-03-05T17:24:51;3.75;;;3.45;;
46713;SDS011;32445;51.376;10.874;2023-03-05T17:27:51;5.85;;;4.43;;
46713;SDS011;32445;51.376;10.874;2023-03-05T17:30:51;4.25;;;3.97;;
46713;SDS011;32445;51.376;10.874;2023-03-05T17:33:53;4.53;;;2.72;;
46713;SDS011;32445;51.376;10.874;2023-03-05T17:36:54;2.58;;;2.38;;
46713;SDS011;32445;51.376;10.874;2023-03-05T17:39:54;3.80;;;2.40;;
46713;SDS011;32445;51.376;10.874;2023-03-05T17:42:55;2.72;;;2.53;;
46713;SDS011;32445;51.376;10.874;2023-03-05T17:45:55;2.45;;;2.25;;
46713;SDS011;32445;51.376;10.874;2023-03-05T17:48:58;4.60;;;2.50;;
46713;SDS011;32445;51.376;10.874;2023-03-05T17:51:58;2.55;;;2.35;;
46713;SDS011;32445;51.376;10.874;2023-03-05T17:54:59;2.65;;;1.80;;
46713;SDS011;32445;51.376;10.874;2023-03-05T17:57:59;4.50;;;1.90;;
46713;SDS011;32445;51.376;10.874;2023-03-05T18:00:59;2.55;;;2.35;;
46713;SDS011;32445;51.376;10.874;2023-03-05T18:04:00;2.58;;;1.98;;
46713;SDS011;32445;51.376;10.874;2023-03-05T18:07:01;7.50;;;2.20;;
46713;SDS011;32445;51.376;10.874;2023-03-05T18:10:02;2.72;;;2.13;;
46713;SDS011;32445;51.376;10.874;2023-03-05T18:13:03;2.25;;;2.03;;
46713;SDS011;32445;51.376;10.874;2023-03-05T18:16:04;4.78;;;2.22;;
46713;SDS011;32445;51.376;10.874;2023-03-05T18:19:04;4.35;;;2.78;;
46713;SDS011;32445;51.376;10.874;2023-03-05T18:22:05;6.25;;;2.47;;
46713;SDS011;32445;51.376;10.874;2023-03-05T18:25:05;3.17;;;2.88;;
46713;SDS011;32445;51.376;10.874;2023-03-05T18:28:07;2.83;;;2.63;;
46713;SDS011;32445;51.376;10.874;2023-03-05T18:31:09;2.30;;;1.90;;
46713;SDS011;32445;51.376;10.874;2023-03-05T18:34:09;2.63;;;2.42;;
46713;SDS011;32445;51.376;10.874;2023-03-05T18:37:10;3.38;;;2.90;;
46713;SDS011;32445;51.376;10.874;2023-03-05T18:40:14;6.28;;;3.42;;
46713;SDS011;32445;51.376;10.874;2023-03-05T18:43:17;9.35;;;3.55;;
46713;SDS011;32445;51.376;10.874;2023-03-05T18:46:19;3.67;;;3.00;;
46713;SDS011;32445;51.376;10.874;2023-03-05T18:49:19;4.25;;;3.85;;
46713;SDS011;32445;51.376;10.874;2023-03-05T18:52:20;3.13;;;2.80;;
46713;SDS011;32445;51.376;10.874;2023-03-05T18:55:21;14.50;;;8.10;;
46713;SDS011;32445;51.376;10.874;2023-03-05T18:58:24;5.63;;;5.03;;
46713;SDS011;32445;51.376;10.874;2023-03-05T19:01:24;4.05;;;3.75;;
46713;SDS011;32445;51.376;10.874;2023-03-05T19:04:25;4.18;;;3.78;;
46713;SDS011;32445;51.376;10.874;2023-03-05T19:07:25;3.45;;;3.13;;